sensor_id;sensor_type;location;lat;lon;timestamp;temperature;humidity
2523;DHT22;1272;53.332;9.860;2023-04-01T00:01:33;10.20;99.90
2523;DHT22;1272;53.332;9.860;2023-04-01T00:03:59;10.20;99.90
2523;DHT22;1272;53.332;9.860;2023-04-01T00:06:27;10.20;99.90
2523;DHT22;1272;53.332;9.860;2023-04-01T00:08:53;10.20;99.90
2523;DHT22;1272;53.332;9.860;2023-04-01T00:11:19;10.20;99.90
2523;DHT22;1272;53.332;9.860;2023-04-01T00:13:45;10.20;99.90
2523;DHT22;1272;53.332;9.860;2023-04-01T00:16:11;10.10;99.90
2523;DHT22;1272;53.332;9.860;2023-04-01T00:18:38;10.10;99.90
2523;DHT22;1272;53.332;9.860;2023-04-01T00:21:04;10.10;99.90
2523;DHT22;1272;53.332;9.860;2023-04-01T00:23:30;10.10;99.90
2523;DHT22;1272;53.332;9.860;2023-04-01T00:25:56;10.10;99.90
2523;DHT22;1272;53.332;9.860;2023-04-01T00:28:21;10.10;99.90
2523;DHT22;1272;53.332;9.860;2023-04-01T00:30:47;10.10;99.90
2523;DHT22;1272;53.332;9.860;2023-04-01T00:33:13;10.10;99.90
2523;DHT22;1272;53.332;9.860;2023-04-01T00:35:39;10.10;99.90
2523;DHT22;1272;53.332;9.860;2023-04-01T00:38:05;10.10;99.90
2523;DHT22;1272;53.332;9.860;2023-04-01T00:40:37;10.10;99.90
2523;DHT22;1272;53.332;9.860;2023-04-01T00:43:13;10.00;99.90
2523;DHT22;1272;53.332;9.860;2023-04-01T00:45:41;10.10;99.90
2523;DHT22;1272;53.332;9.860;2023-04-01T00:48:11;10.00;99.90
2523;DHT22;1272;53.332;9.860;2023-04-01T00:50:41;10.00;99.90
2523;DHT22;1272;53.332;9.860;2023-04-01T00:53:08;10.00;99.90
2523;DHT22;1272;53.332;9.860;2023-04-01T00:55:37;10.00;99.90
2523;DHT22;1272;53.332;9.860;2023-04-01T00:58:08;10.10;99.90
2523;DHT22;1272;53.332;9.860;2023-04-01T01:00:36;10.00;99.90
2523;DHT22;1272;53.332;9.860;2023-04-01T01:03:03;10.00;99.90
2523;DHT22;1272;53.332;9.860;2023-04-01T01:10:42;10.00;99.90
2523;DHT22;1272;53.332;9.860;2023-04-01T01:13:35;10.00;99.90
2523;DHT22;1272;53.332;9.860;2023-04-01T01:16:10;10.00;99.90
2523;DHT22;1272;53.332;9.860;2023-04-01T01:18:44;10.00;99.90
2523;DHT22;1272;53.332;9.860;2023-04-01T01:21:47;10.00;99.90
2523;DHT22;1272;53.332;9.860;2023-04-01T01:27:18;9.90;99.90
2523;DHT22;1272;53.332;9.860;2023-04-01T01:35:26;9.90;99.90
2523;DHT22;1272;53.332;9.860;2023-04-01T01:38:09;9.90;99.90
2523;DHT22;1272;53.332;9.860;2023-04-01T01:40:39;9.80;99.90
2523;DHT22;1272;53.332;9.860;2023-04-01T01:43:09;9.80;99.90
2523;DHT22;1272;53.332;9.860;2023-04-01T01:45:40;9.90;99.90
2523;DHT22;1272;53.332;9.860;2023-04-01T01:48:09;9.90;99.90
2523;DHT22;1272;53.332;9.860;2023-04-01T01:50:36;9.90;99.90
2523;DHT22;1272;53.332;9.860;2023-04-01T01:53:05;9.90;99.90
2523;DHT22;1272;53.332;9.860;2023-04-01T01:55:34;9.90;99.90
2523;DHT22;1272;53.332;9.860;2023-04-01T02:01:01;9.80;99.90
2523;DHT22;1272;53.332;9.860;2023-04-01T02:03:30;9.80;99.90
2523;DHT22;1272;53.332;9.860;2023-04-01T02:05:59;9.80;99.90
2523;DHT22;1272;53.332;9.860;2023-04-01T02:08:35;9.80;99.90
2523;DHT22;1272;53.332;9.860;2023-04-01T02:11:06;9.80;99.90
2523;DHT22;1272;53.332;9.860;2023-04-01T02:14:07;9.80;99.90
2523;DHT22;1272;53.332;9.860;2023-04-01T02:16:46;9.80;99.90
2523;DHT22;1272;53.332;9.860;2023-04-01T02:19:15;9.80;99.90
2523;DHT22;1272;53.332;9.860;2023-04-01T02:21:52;9.80;99.90
2523;DHT22;1272;53.332;9.860;2023-04-01T02:24:20;9.80;99.90
2523;DHT22;1272;53.332;9.860;2023-04-01T02:26:50;9.80;99.90
2523;DHT22;1272;53.332;9.860;2023-04-01T02:29:19;9.80;99.90
2523;DHT22;1272;53.332;9.860;2023-04-01T02:31:46;9.70;99.90
2523;DHT22;1272;53.332;9.860;2023-04-01T02:34:12;9.70;99.90
2523;DHT22;1272;53.332;9.860;2023-04-01T02:36:38;9.70;99.90
2523;DHT22;1272;53.332;9.860;2023-04-01T02:39:05;9.70;99.90
2523;DHT22;1272;53.332;9.860;2023-04-01T02:41:31;9.70;99.90
2523;DHT22;1272;53.332;9.860;2023-04-01T02:43:57;9.80;99.90
2523;DHT22;1272;53.332;9.860;2023-04-01T02:46:24;9.80;99.90
2523;DHT22;1272;53.332;9.860;2023-04-01T02:48:50;9.70;99.90
2523;DHT22;1272;53.332;9.860;2023-04-01T02:51:16;9.70;99.90
2523;DHT22;1272;53.332;9.860;2023-04-01T02:53:41;9.70;99.90
2523;DHT22;1272;53.332;9.860;2023-04-01T02:56:07;9.80;99.90
2523;DHT22;1272;53.332;9.860;2023-04-01T02:58:33;9.80;99.90
2523;DHT22;1272;53.332;9.860;2023-04-01T03:00:58;9.80;99.90
2523;DHT22;1272;53.332;9.860;2023-04-01T03:03:24;9.80;99.90
2523;DHT22;1272;53.332;9.860;2023-04-01T03:05:50;9.70;99.90
2523;DHT22;1272;53.332;9.860;2023-04-01T03:08:15;9.70;99.90
2523;DHT22;1272;53.332;9.860;2023-04-01T03:10:41;9.70;99.90
2523;DHT22;1272;53.332;9.860;2023-04-01T03:13:07;9.70;99.90
2523;DHT22;1272;53.332;9.860;2023-04-01T03:15:32;9.70;99.90
2523;DHT22;1272;53.332;9.860;2023-04-01T03:17:58;9.70;99.90
2523;DHT22;1272;53.332;9.860;2023-04-01T03:20:24;9.70;99.90
2523;DHT22;1272;53.332;9.860;2023-04-01T03:22:49;9.70;99.90
2523;DHT22;1272;53.332;9.860;2023-04-01T03:25:15;9.70;99.90
2523;DHT22;1272;53.332;9.860;2023-04-01T03:27:41;9.70;99.90
2523;DHT22;1272;53.332;9.860;2023-04-01T03:30:07;9.70;99.90
2523;DHT22;1272;53.332;9.860;2023-04-01T03:32:33;9.70;99.90
2523;DHT22;1272;53.332;9.860;2023-04-01T03:34:58;9.70;99.90
2523;DHT22;1272;53.332;9.860;2023-04-01T03:37:24;9.70;99.90
2523;DHT22;1272;53.332;9.860;2023-04-01T03:39:50;9.70;99.90
2523;DHT22;1272;53.332;9.860;2023-04-01T03:42:16;9.70;99.90
2523;DHT22;1272;53.332;9.860;2023-04-01T03:44:41;9.70;99.90
2523;DHT22;1272;53.332;9.860;2023-04-01T03:47:07;9.70;99.90
2523;DHT22;1272;53.332;9.860;2023-04-01T03:49:34;9.70;99.90
2523;DHT22;1272;53.332;9.860;2023-04-01T03:52:03;9.70;99.90
2523;DHT22;1272;53.332;9.860;2023-04-01T03:54:29;9.70;99.90
2523;DHT22;1272;53.332;9.860;2023-04-01T03:56:54;9.70;99.90
2523;DHT22;1272;53.332;9.860;2023-04-01T03:59:20;9.70;99.90
2523;DHT22;1272;53.332;9.860;2023-04-01T04:01:47;9.70;99.90
2523;DHT22;1272;53.332;9.860;2023-04-01T04:04:13;9.70;99.90
2523;DHT22;1272;53.332;9.860;2023-04-01T04:06:40;9.70;99.90
2523;DHT22;1272;53.332;9.860;2023-04-01T04:09:05;9.70;99.90
2523;DHT22;1272;53.332;9.860;2023-04-01T04:11:31;9.70;99.90
2523;DHT22;1272;53.332;9.860;2023-04-01T04:14:00;9.70;99.90
2523;DHT22;1272;53.332;9.860;2023-04-01T04:16:26;9.70;99.90
2523;DHT22;1272;53.332;9.860;2023-04-01T04:18:52;9.70;99.90
2523;DHT22;1272;53.332;9.860;2023-04-01T04:21:17;9.70;99.90
2523;DHT22;1272;53.332;9.860;2023-04-01T04:23:43;9.80;99.90
2523;DHT22;1272;53.332;9.860;2023-04-01T04:26:12;9.80;99.90
2523;DHT22;1272;53.332;9.860;2023-04-01T04:28:38;9.80;99.90
2523;DHT22;1272;53.332;9.860;2023-04-01T04:31:04;9.70;99.90
2523;DHT22;1272;53.332;9.860;2023-04-01T04:33:32;9.80;99.90
2523;DHT22;1272;53.332;9.860;2023-04-01T04:35:58;9.70;99.90
2523;DHT22;1272;53.332;9.860;2023-04-01T04:38:25;9.80;99.90
2523;DHT22;1272;53.332;9.860;2023-04-01T04:40:51;9.70;99.90
2523;DHT22;1272;53.332;9.860;2023-04-01T04:43:17;9.70;99.90
2523;DHT22;1272;53.332;9.860;2023-04-01T04:45:43;9.70;99.90
2523;DHT22;1272;53.332;9.860;2023-04-01T04:48:11;9.70;99.90
2523;DHT22;1272;53.332;9.860;2023-04-01T04:50:41;9.70;99.90
2523;DHT22;1272;53.332;9.860;2023-04-01T04:53:10;9.70;99.90
2523;DHT22;1272;53.332;9.860;2023-04-01T04:55:36;9.70;99.90
2523;DHT22;1272;53.332;9.860;2023-04-01T04:58:02;9.70;99.90
2523;DHT22;1272;53.332;9.860;2023-04-01T05:00:27;9.60;99.90
2523;DHT22;1272;53.332;9.860;2023-04-01T05:02:53;9.60;99.90
2523;DHT22;1272;53.332;9.860;2023-04-01T05:05:19;9.60;99.90
2523;DHT22;1272;53.332;9.860;2023-04-01T05:07:45;9.60;99.90
2523;DHT22;1272;53.332;9.860;2023-04-01T05:10:10;9.60;99.90
2523;DHT22;1272;53.332;9.860;2023-04-01T05:12:36;9.70;99.90
2523;DHT22;1272;53.332;9.860;2023-04-01T05:15:05;9.70;99.90
2523;DHT22;1272;53.332;9.860;2023-04-01T05:17:31;9.70;99.90
2523;DHT22;1272;53.332;9.860;2023-04-01T05:19:57;9.70;99.90
2523;DHT22;1272;53.332;9.860;2023-04-01T05:22:23;9.70;99.90
2523;DHT22;1272;53.332;9.860;2023-04-01T05:24:49;9.70;99.90
2523;DHT22;1272;53.332;9.860;2023-04-01T05:27:18;9.70;99.90
2523;DHT22;1272;53.332;9.860;2023-04-01T05:29:44;9.70;99.90
2523;DHT22;1272;53.332;9.860;2023-04-01T05:32:09;9.70;99.90
2523;DHT22;1272;53.332;9.860;2023-04-01T05:34:35;9.70;99.90
2523;DHT22;1272;53.332;9.860;2023-04-01T05:37:01;9.80;99.90
2523;DHT22;1272;53.332;9.860;2023-04-01T05:39:26;9.80;99.90
2523;DHT22;1272;53.332;9.860;2023-04-01T05:41:52;9.80;99.90
2523;DHT22;1272;53.332;9.860;2023-04-01T05:44:18;9.80;99.90
2523;DHT22;1272;53.332;9.860;2023-04-01T05:46:44;9.70;99.90
2523;DHT22;1272;53.332;9.860;2023-04-01T05:49:09;9.80;99.90
2523;DHT22;1272;53.332;9.860;2023-04-01T05:51:35;9.80;99.90
2523;DHT22;1272;53.332;9.860;2023-04-01T05:54:01;9.70;99.90
2523;DHT22;1272;53.332;9.860;2023-04-01T05:56:26;9.70;99.90
2523;DHT22;1272;53.332;9.860;2023-04-01T05:58:53;9.80;99.90
2523;DHT22;1272;53.332;9.860;2023-04-01T06:01:19;9.80;99.90
2523;DHT22;1272;53.332;9.860;2023-04-01T06:03:45;9.80;99.90
2523;DHT22;1272;53.332;9.860;2023-04-01T06:06:20;9.90;99.90
2523;DHT22;1272;53.332;9.860;2023-04-01T06:08:48;9.90;99.90
2523;DHT22;1272;53.332;9.860;2023-04-01T06:14:10;9.90;99.90
2523;DHT22;1272;53.332;9.860;2023-04-01T06:31:08;9.90;99.90
2523;DHT22;1272;53.332;9.860;2023-04-01T06:36:27;9.90;99.90
2523;DHT22;1272;53.332;9.860;2023-04-01T06:39:22;10.00;99.90
2523;DHT22;1272;53.332;9.860;2023-04-01T06:53:14;10.00;99.90
2523;DHT22;1272;53.332;9.860;2023-04-01T06:55:46;10.00;99.90
2523;DHT22;1272;53.332;9.860;2023-04-01T07:00:52;10.10;99.90
2523;DHT22;1272;53.332;9.860;2023-04-01T07:05:47;10.10;99.90
2523;DHT22;1272;53.332;9.860;2023-04-01T07:08:18;10.10;99.90
2523;DHT22;1272;53.332;9.860;2023-04-01T07:13:35;10.10;99.90
2523;DHT22;1272;53.332;9.860;2023-04-01T07:16:07;10.10;99.90
2523;DHT22;1272;53.332;9.860;2023-04-01T07:21:41;10.10;99.90
2523;DHT22;1272;53.332;9.860;2023-04-01T07:24:36;10.20;99.90
2523;DHT22;1272;53.332;9.860;2023-04-01T07:27:00;10.10;99.90
2523;DHT22;1272;53.332;9.860;2023-04-01T07:29:26;9.90;99.90
2523;DHT22;1272;53.332;9.860;2023-04-01T07:34:47;9.50;99.90
2523;DHT22;1272;53.332;9.860;2023-04-01T07:37:18;9.40;99.90
2523;DHT22;1272;53.332;9.860;2023-04-01T07:45:34;9.20;99.90
2523;DHT22;1272;53.332;9.860;2023-04-01T07:50:34;9.10;99.90
2523;DHT22;1272;53.332;9.860;2023-04-01T07:58:26;9.00;99.90
2523;DHT22;1272;53.332;9.860;2023-04-01T08:01:05;8.90;99.90
2523;DHT22;1272;53.332;9.860;2023-04-01T08:09:07;8.70;99.90
2523;DHT22;1272;53.332;9.860;2023-04-01T08:17:05;8.50;99.90
2523;DHT22;1272;53.332;9.860;2023-04-01T08:19:46;8.50;99.90
2523;DHT22;1272;53.332;9.860;2023-04-01T08:22:26;8.40;99.90
2523;DHT22;1272;53.332;9.860;2023-04-01T08:24:55;8.30;99.90
2523;DHT22;1272;53.332;9.860;2023-04-01T08:27:39;8.30;99.90
2523;DHT22;1272;53.332;9.860;2023-04-01T08:33:09;8.20;99.90
2523;DHT22;1272;53.332;9.860;2023-04-01T08:52:59;8.00;99.90
2523;DHT22;1272;53.332;9.860;2023-04-01T09:26:21;7.80;99.90
2523;DHT22;1272;53.332;9.860;2023-04-01T09:43:26;7.70;99.90
2523;DHT22;1272;53.332;9.860;2023-04-01T09:46:11;7.70;99.90
2523;DHT22;1272;53.332;9.860;2023-04-01T10:08:09;7.40;99.90
2523;DHT22;1272;53.332;9.860;2023-04-01T10:21:59;7.40;99.90
2523;DHT22;1272;53.332;9.860;2023-04-01T10:35:38;7.40;99.90
2523;DHT22;1272;53.332;9.860;2023-04-01T10:38:45;7.40;99.90
2523;DHT22;1272;53.332;9.860;2023-04-01T11:01:02;7.50;99.90
2523;DHT22;1272;53.332;9.860;2023-04-01T11:12:19;7.50;99.90
2523;DHT22;1272;53.332;9.860;2023-04-01T11:20:45;7.60;99.90
2523;DHT22;1272;53.332;9.860;2023-04-01T11:23:28;7.50;99.90
2523;DHT22;1272;53.332;9.860;2023-04-01T11:26:08;7.50;99.90
2523;DHT22;1272;53.332;9.860;2023-04-01T11:37:29;7.60;99.90
2523;DHT22;1272;53.332;9.860;2023-04-01T11:45:23;7.60;99.90
2523;DHT22;1272;53.332;9.860;2023-04-01T12:04:17;7.40;99.90
2523;DHT22;1272;53.332;9.860;2023-04-01T12:15:11;7.40;99.90
2523;DHT22;1272;53.332;9.860;2023-04-01T12:23:12;7.50;99.90
2523;DHT22;1272;53.332;9.860;2023-04-01T12:45:55;7.40;99.90
2523;DHT22;1272;53.332;9.860;2023-04-01T13:13:58;7.20;99.90
2523;DHT22;1272;53.332;9.860;2023-04-01T13:16:30;7.20;99.90
2523;DHT22;1272;53.332;9.860;2023-04-01T13:21:51;7.00;99.90
2523;DHT22;1272;53.332;9.860;2023-04-01T13:24:31;7.00;99.90
2523;DHT22;1272;53.332;9.860;2023-04-01T13:41:05;6.90;99.90
2523;DHT22;1272;53.332;9.860;2023-04-01T13:43:34;6.90;99.90
2523;DHT22;1272;53.332;9.860;2023-04-01T13:53:55;6.90;99.90
2523;DHT22;1272;53.332;9.860;2023-04-01T14:05:28;6.80;99.90
2523;DHT22;1272;53.332;9.860;2023-04-01T14:08:23;6.80;99.90
2523;DHT22;1272;53.332;9.860;2023-04-01T14:25:17;6.70;99.90
2523;DHT22;1272;53.332;9.860;2023-04-01T14:27:56;6.70;99.90
2523;DHT22;1272;53.332;9.860;2023-04-01T14:41:51;6.50;99.90
2523;DHT22;1272;53.332;9.860;2023-04-01T14:47:33;6.50;99.90
2523;DHT22;1272;53.332;9.860;2023-04-01T14:55:34;6.30;99.90
2523;DHT22;1272;53.332;9.860;2023-04-01T14:58:14;6.30;99.90
2523;DHT22;1272;53.332;9.860;2023-04-01T15:00:48;6.30;99.90
2523;DHT22;1272;53.332;9.860;2023-04-01T15:14:17;6.20;99.90
2523;DHT22;1272;53.332;9.860;2023-04-01T15:16:53;6.20;99.90
2523;DHT22;1272;53.332;9.860;2023-04-01T15:22:43;6.20;99.90
2523;DHT22;1272;53.332;9.860;2023-04-01T15:31:19;6.20;99.90
2523;DHT22;1272;53.332;9.860;2023-04-01T15:37:26;6.20;99.90
2523;DHT22;1272;53.332;9.860;2023-04-01T15:43:01;5.90;99.90
2523;DHT22;1272;53.332;9.860;2023-04-01T15:45:32;5.90;99.90
2523;DHT22;1272;53.332;9.860;2023-04-01T15:48:29;5.90;99.90
2523;DHT22;1272;53.332;9.860;2023-04-01T16:02:45;6.00;99.90
2523;DHT22;1272;53.332;9.860;2023-04-01T16:11:28;6.00;99.90
2523;DHT22;1272;53.332;9.860;2023-04-01T16:14:22;5.90;99.90
2523;DHT22;1272;53.332;9.860;2023-04-01T16:19:50;5.90;99.90
2523;DHT22;1272;53.332;9.860;2023-04-01T16:25:07;5.90;99.90
2523;DHT22;1272;53.332;9.860;2023-04-01T16:27:40;5.80;99.90
2523;DHT22;1272;53.332;9.860;2023-04-01T16:30:22;5.80;99.90
2523;DHT22;1272;53.332;9.860;2023-04-01T16:33:00;5.70;99.90
2523;DHT22;1272;53.332;9.860;2023-04-01T16:38:26;5.60;99.90
2523;DHT22;1272;53.332;9.860;2023-04-01T16:41:24;5.60;99.90
2523;DHT22;1272;53.332;9.860;2023-04-01T16:43:56;5.60;99.90
2523;DHT22;1272;53.332;9.860;2023-04-01T16:46:32;5.50;99.90
2523;DHT22;1272;53.332;9.860;2023-04-01T16:51:52;5.50;99.90
2523;DHT22;1272;53.332;9.860;2023-04-01T16:57:28;5.50;99.90
2523;DHT22;1272;53.332;9.860;2023-04-01T17:02:51;5.50;99.90
2523;DHT22;1272;53.332;9.860;2023-04-01T17:05:21;5.50;99.90
2523;DHT22;1272;53.332;9.860;2023-04-01T17:08:12;5.50;99.90
2523;DHT22;1272;53.332;9.860;2023-04-01T17:10:56;5.50;99.90
2523;DHT22;1272;53.332;9.860;2023-04-01T17:16:52;5.50;99.90
2523;DHT22;1272;53.332;9.860;2023-04-01T17:37:34;5.40;99.90
2523;DHT22;1272;53.332;9.860;2023-04-01T17:45:24;5.20;99.90
2523;DHT22;1272;53.332;9.860;2023-04-01T17:48:03;5.20;99.90
2523;DHT22;1272;53.332;9.860;2023-04-01T17:56:14;5.10;99.90
2523;DHT22;1272;53.332;9.860;2023-04-01T17:58:50;5.10;99.90
2523;DHT22;1272;53.332;9.860;2023-04-01T18:06:42;5.00;99.90
2523;DHT22;1272;53.332;9.860;2023-04-01T18:15:30;4.90;99.90
2523;DHT22;1272;53.332;9.860;2023-04-01T18:18:10;4.90;99.90
2523;DHT22;1272;53.332;9.860;2023-04-01T18:24:00;4.90;99.90
2523;DHT22;1272;53.332;9.860;2023-04-01T18:26:37;4.90;99.90
2523;DHT22;1272;53.332;9.860;2023-04-01T18:29:17;4.80;99.90
2523;DHT22;1272;53.332;9.860;2023-04-01T18:31:54;4.90;99.90
2523;DHT22;1272;53.332;9.860;2023-04-01T18:37:04;4.90;99.90
2523;DHT22;1272;53.332;9.860;2023-04-01T18:40:21;4.90;99.90
2523;DHT22;1272;53.332;9.860;2023-04-01T18:45:32;4.90;99.90
2523;DHT22;1272;53.332;9.860;2023-04-01T18:50:52;4.90;99.90
2523;DHT22;1272;53.332;9.860;2023-04-01T18:53:23;4.90;99.90
2523;DHT22;1272;53.332;9.860;2023-04-01T18:58:36;4.80;99.90
2523;DHT22;1272;53.332;9.860;2023-04-01T19:04:04;4.80;99.90
2523;DHT22;1272;53.332;9.860;2023-04-01T19:09:24;4.80;99.90
2523;DHT22;1272;53.332;9.860;2023-04-01T19:14:56;4.70;99.90
2523;DHT22;1272;53.332;9.860;2023-04-01T19:26:34;4.60;99.90
2523;DHT22;1272;53.332;9.860;2023-04-01T19:34:57;4.60;99.90
2523;DHT22;1272;53.332;9.860;2023-04-01T19:37:45;4.60;99.90
2523;DHT22;1272;53.332;9.860;2023-04-01T19:43:12;4.50;99.90
2523;DHT22;1272;53.332;9.860;2023-04-01T19:46:18;4.40;99.90
2523;DHT22;1272;53.332;9.860;2023-04-01T19:49:06;4.30;99.90
2523;DHT22;1272;53.332;9.860;2023-04-01T20:00:40;4.30;99.90
2523;DHT22;1272;53.332;9.860;2023-04-01T20:17:09;4.00;99.90
2523;DHT22;1272;53.332;9.860;2023-04-01T20:19:43;4.10;99.90
2523;DHT22;1272;53.332;9.860;2023-04-01T20:33:41;4.00;99.90
2523;DHT22;1272;53.332;9.860;2023-04-01T20:36:21;4.00;99.90
2523;DHT22;1272;53.332;9.860;2023-04-01T20:53:02;3.60;99.90
2523;DHT22;1272;53.332;9.860;2023-04-01T21:01:28;3.50;99.90
2523;DHT22;1272;53.332;9.860;2023-04-01T21:07:11;3.40;99.90
2523;DHT22;1272;53.332;9.860;2023-04-01T21:10:06;3.30;99.90
2523;DHT22;1272;53.332;9.860;2023-04-01T21:16:08;3.20;99.90
2523;DHT22;1272;53.332;9.860;2023-04-01T21:20:59;3.20;99.90
2523;DHT22;1272;53.332;9.860;2023-04-01T21:43:20;3.10;99.90
2523;DHT22;1272;53.332;9.860;2023-04-01T21:52:27;3.00;99.90
2523;DHT22;1272;53.332;9.860;2023-04-01T21:57:49;3.00;99.90
2523;DHT22;1272;53.332;9.860;2023-04-01T22:00:32;2.90;99.90
2523;DHT22;1272;53.332;9.860;2023-04-01T22:03:28;2.90;99.90
2523;DHT22;1272;53.332;9.860;2023-04-01T22:06:22;2.90;99.90
2523;DHT22;1272;53.332;9.860;2023-04-01T22:09:15;2.80;99.90
2523;DHT22;1272;53.332;9.860;2023-04-01T22:16:55;2.90;99.90
2523;DHT22;1272;53.332;9.860;2023-04-01T22:25:03;2.70;99.90
2523;DHT22;1272;53.332;9.860;2023-04-01T22:38:36;2.70;99.90
2523;DHT22;1272;53.332;9.860;2023-04-01T22:46:22;2.50;99.90
2523;DHT22;1272;53.332;9.860;2023-04-01T22:49:00;2.50;99.90
2523;DHT22;1272;53.332;9.860;2023-04-01T22:51:50;2.50;99.90
2523;DHT22;1272;53.332;9.860;2023-04-01T22:54:27;2.50;99.90
2523;DHT22;1272;53.332;9.860;2023-04-01T22:57:08;2.50;99.90
2523;DHT22;1272;53.332;9.860;2023-04-01T23:00:26;2.50;99.90
2523;DHT22;1272;53.332;9.860;2023-04-01T23:03:00;2.40;99.90
2523;DHT22;1272;53.332;9.860;2023-04-01T23:05:30;2.30;99.90
2523;DHT22;1272;53.332;9.860;2023-04-01T23:10:46;2.20;99.90
2523;DHT22;1272;53.332;9.860;2023-04-01T23:13:26;2.20;99.90
2523;DHT22;1272;53.332;9.860;2023-04-01T23:15:54;2.30;99.90
2523;DHT22;1272;53.332;9.860;2023-04-01T23:18:52;2.30;99.90
2523;DHT22;1272;53.332;9.860;2023-04-01T23:21:35;2.20;99.90
2523;DHT22;1272;53.332;9.860;2023-04-01T23:24:40;2.20;99.90
2523;DHT22;1272;53.332;9.860;2023-04-01T23:27:19;2.20;99.90
2523;DHT22;1272;53.332;9.860;2023-04-01T23:29:45;2.20;99.90
2523;DHT22;1272;53.332;9.860;2023-04-01T23:32:29;2.20;99.90
2523;DHT22;1272;53.332;9.860;2023-04-01T23:34:57;2.20;99.90
2523;DHT22;1272;53.332;9.860;2023-04-01T23:37:24;2.20;99.90
2523;DHT22;1272;53.332;9.860;2023-04-01T23:39:57;2.20;99.90
2523;DHT22;1272;53.332;9.860;2023-04-01T23:44:53;2.20;99.90
2523;DHT22;1272;53.332;9.860;2023-04-01T23:47:38;2.20;99.90
2523;DHT22;1272;53.332;9.860;2023-04-01T23:50:14;2.10;99.90
2523;DHT22;1272;53.332;9.860;2023-04-01T23:53:04;2.10;99.90
2523;DHT22;1272;53.332;9.860;2023-04-01T23:55:34;2.10;99.90
